Time;durP1;ratioP1;P1;durP2;ratioP2;P2;SDS_P1;SDS_P2;PMS_P1;PMS_P2;Temp;Humidity;BMP_temperature;BMP_pressure;BME280_temperature;BME280_humidity;BME280_pressure;Samples;Min_cycle;Max_cycle;Signal;HPM_P1;HPM_P2
2022/05/16 00:01:17;;;;;;;;;;;;;;;9.69;58.42;100707.60;105867;1271;22539;-50
2022/05/16 00:03:47;;;;;;;;;;;;;;;9.63;58.70;100709.55;105912;1271;22544;-49
2022/05/16 00:06:18;;;;;;;;;;;;;;;9.56;58.88;100714.14;105788;1271;24624;-49
2022/05/16 00:08:51;;;;;;;;;;;;;;;9.45;59.65;100714.73;106029;1271;23120;-50
2022/05/16 00:11:21;;;;;;;;;;;;;;;9.37;60.16;100714.30;106162;1271;22518;-49
2022/05/16 00:13:50;;;;;;;;;;;;;;;9.28;59.95;100713.72;106094;1270;22506;-50
2022/05/16 00:16:21;;;;;;;;;;;;;;;9.22;59.93;100714.80;105814;1271;24318;-50
2022/05/16 00:18:51;;;;;;;;;;;;;;;9.17;60.03;100715.95;106127;1271;24381;-49
2022/05/16 00:21:21;;;;;;;;;;;;;;;9.13;60.37;100719.00;105981;1272;25225;-48
2022/05/16 00:23:50;;;;;;;;;;;;;;;9.06;60.66;100719.09;105870;1271;22516;-50
2022/05/16 00:26:20;;;;;;;;;;;;;;;9.01;60.39;100717.24;106116;1271;25216;-49
2022/05/16 00:28:50;;;;;;;;;;;;;;;8.99;60.63;100717.89;105862;1271;23324;-49
2022/05/16 00:31:19;;;;;;;;;;;;;;;8.96;60.72;100720.45;105747;1272;22555;-51
2022/05/16 00:33:49;;;;;;;;;;;;;;;8.92;60.72;100723.85;106206;1272;22529;-52
2022/05/16 00:36:19;;;;;;;;;;;;;;;8.89;60.72;100723.88;105842;1271;24381;-49
2022/05/16 00:38:50;;;;;;;;;;;;;;;8.86;60.64;100724.88;105870;1272;22678;-49
2022/05/16 00:41:19;;;;;;;;;;;;;;;8.85;60.41;100727.88;106447;1270;22560;-47
2022/05/16 00:43:52;;;;;;;;;;;;;;;8.85;60.33;100726.45;106146;1270;22532;-49
2022/05/16 00:46:24;;;;;;;;;;;;;;;8.85;60.30;100724.91;105828;1271;22592;-47
2022/05/16 00:48:54;;;;;;;;;;;;;;;8.85;60.10;100724.91;105615;1273;22514;-49
2022/05/16 00:51:27;;;;;;;;;;;;;;;8.87;60.06;100722.71;105845;1271;24271;-48
2022/05/16 00:53:58;;;;;;;;;;;;;;;8.87;60.07;100721.33;105845;1271;25355;-49
2022/05/16 00:56:28;;;;;;;;;;;;;;;8.88;60.08;100724.98;106055;1271;24234;-49
2022/05/16 00:58:59;;;;;;;;;;;;;;;8.87;60.12;100726.19;106095;1271;22512;-48
2022/05/16 01:07:04;;;;;;;;;;;;;;;8.79;61.01;100727.30;106087;1271;22600;-48
2022/05/16 01:09:34;;;;;;;;;;;;;;;8.70;61.83;100725.40;105836;1271;22671;-49
2022/05/16 01:12:04;;;;;;;;;;;;;;;8.63;61.97;100724.39;106162;1271;22508;-49
2022/05/16 01:14:42;;;;;;;;;;;;;;;8.56;62.34;100726.56;105919;1271;22597;-50
2022/05/16 01:17:13;;;;;;;;;;;;;;;8.45;62.77;100725.54;105822;1271;24229;-50
2022/05/16 01:19:42;;;;;;;;;;;;;;;8.38;62.68;100727.34;105757;1271;25333;-49
2022/05/16 01:22:19;;;;;;;;;;;;;;;8.32;62.96;100729.39;106085;1271;24301;-49
2022/05/16 01:24:50;;;;;;;;;;;;;;;8.24;62.96;100727.73;105900;1271;22540;-48
2022/05/16 01:27:20;;;;;;;;;;;;;;;8.18;63.07;100728.48;105952;1271;25716;-48
2022/05/16 01:29:50;;;;;;;;;;;;;;;8.13;63.30;100730.58;105837;1272;25341;-49
2022/05/16 01:32:20;;;;;;;;;;;;;;;8.05;63.28;100734.02;106119;1270;22618;-49
2022/05/16 01:34:51;;;;;;;;;;;;;;;8.00;63.38;100735.92;105909;1271;22509;-50
2022/05/16 01:38:18;;;;;;;;;;;;;;;7.97;63.41;100734.05;105981;1271;22509;-49
2022/05/16 01:40:11;;;;;;;;;;;;;;;7.94;63.48;100732.97;105729;1271;22987;-48
2022/05/16 01:42:41;;;;;;;;;;;;;;;7.93;63.86;100732.68;106026;1271;25282;-50
2022/05/16 01:45:11;;;;;;;;;;;;;;;7.93;64.22;100737.70;105864;1271;22466;-49
2022/05/16 01:47:42;;;;;;;;;;;;;;;7.92;64.34;100741.33;105971;1271;22530;-51
2022/05/16 01:50:11;;;;;;;;;;;;;;;7.92;63.99;100742.95;106499;1261;25300;-59
2022/05/16 01:52:41;;;;;;;;;;;;;;;7.93;63.64;100737.68;105587;1271;22584;-61
2022/05/16 01:55:12;;;;;;;;;;;;;;;7.94;63.63;100732.16;106064;1271;24338;-60
2022/05/16 01:57:43;;;;;;;;;;;;;;;7.95;63.90;100733.02;106052;1271;22603;-59
2022/05/16 02:00:14;;;;;;;;;;;;;;;7.95;64.34;100732.94;105871;1272;25287;-59
2022/05/16 02:02:44;;;;;;;;;;;;;;;7.93;64.64;100730.45;106135;1271;22534;-59
2022/05/16 02:05:15;;;;;;;;;;;;;;;7.89;64.87;100731.06;105900;1271;22522;-58
2022/05/16 02:07:45;;;;;;;;;;;;;;;7.86;64.73;100732.70;109778;1270;23910;-60
2022/05/16 02:10:16;;;;;;;;;;;;;;;7.84;64.59;100736.00;109818;1270;22416;-60
2022/05/16 02:12:46;;;;;;;;;;;;;;;7.81;64.57;100738.11;108327;1270;22525;-60
2022/05/16 02:15:18;;;;;;;;;;;;;;;7.79;64.66;100738.48;106323;1271;22755;-58
2022/05/16 02:17:48;;;;;;;;;;;;;;;7.77;64.67;100737.21;105990;1271;24234;-59
2022/05/16 02:20:18;;;;;;;;;;;;;;;7.76;64.62;100740.74;105701;1271;22531;-59
2022/05/16 02:25:36;;;;;;;;;;;;;;;7.75;64.58;100742.67;106106;1271;24379;-59
2022/05/16 02:28:07;;;;;;;;;;;;;;;7.72;64.42;100736.17;106278;1271;25235;-59
2022/05/16 02:30:36;;;;;;;;;;;;;;;7.72;64.27;100733.22;105968;1271;22514;-59
2022/05/16 02:33:06;;;;;;;;;;;;;;;7.72;64.32;100734.02;105874;1271;24391;-60
2022/05/16 02:35:36;;;;;;;;;;;;;;;7.71;64.26;100729.45;106218;1271;25527;-60
2022/05/16 02:38:07;;;;;;;;;;;;;;;7.69;64.42;100735.02;105786;1271;22493;-59
2022/05/16 02:40:37;;;;;;;;;;;;;;;7.66;64.37;100734.22;105913;1271;25428;-55
2022/05/16 02:43:07;;;;;;;;;;;;;;;7.63;64.40;100736.88;105799;1271;509036;-59
2022/05/16 02:45:38;;;;;;;;;;;;;;;7.61;64.18;100734.40;105976;1271;22544;-60
2022/05/16 02:48:08;;;;;;;;;;;;;;;7.61;64.00;100734.39;106218;1271;22535;-59
2022/05/16 02:50:38;;;;;;;;;;;;;;;7.62;63.99;100738.33;106470;1271;25245;-59
2022/05/16 02:53:08;;;;;;;;;;;;;;;7.62;63.98;100735.11;106258;1271;22548;-59
2022/05/16 02:55:37;;;;;;;;;;;;;;;7.60;64.10;100735.55;106258;1271;25955;-58
2022/05/16 02:58:09;;;;;;;;;;;;;;;7.57;64.21;100736.45;106226;1271;22506;-59
2022/05/16 03:00:38;;;;;;;;;;;;;;;7.54;64.16;100737.98;105884;1271;22548;-59
2022/05/16 03:03:08;;;;;;;;;;;;;;;7.52;64.02;100736.69;106389;1271;24227;-59
2022/05/16 03:05:38;;;;;;;;;;;;;;;7.52;64.02;100735.02;106241;1271;24252;-59
2022/05/16 03:08:08;;;;;;;;;;;;;;;7.51;64.08;100731.05;105950;1271;22509;-58
2022/05/16 03:10:38;;;;;;;;;;;;;;;7.51;64.11;100727.11;106060;1271;22561;-59
2022/05/16 03:13:09;;;;;;;;;;;;;;;7.51;63.99;100723.77;106125;1270;22519;-58
2022/05/16 03:15:39;;;;;;;;;;;;;;;7.52;63.95;100722.33;105980;1272;22523;-58
2022/05/16 03:18:10;;;;;;;;;;;;;;;7.52;63.98;100720.09;106121;1271;22542;-59
2022/05/16 03:20:39;;;;;;;;;;;;;;;7.53;63.92;100718.86;106069;1271;22520;-59
2022/05/16 03:23:09;;;;;;;;;;;;;;;7.53;63.96;100719.27;106254;1271;26612;-59
2022/05/16 03:25:39;;;;;;;;;;;;;;;7.54;64.34;100719.17;106249;1271;22515;-58
2022/05/16 03:28:09;;;;;;;;;;;;;;;7.50;64.58;100716.27;105856;1271;26505;-59
2022/05/16 03:30:40;;;;;;;;;;;;;;;7.48;64.75;100710.80;106239;1271;22724;-58
2022/05/16 03:33:10;;;;;;;;;;;;;;;7.45;64.61;100716.02;106088;1271;25363;-57
2022/05/16 03:35:40;;;;;;;;;;;;;;;7.44;64.83;100713.46;106331;1271;22524;-58
2022/05/16 03:40:41;;;;;;;;;;;;;;;7.43;64.78;100711.20;106292;1271;25379;-57
2022/05/16 03:40:59;;;;;;;;;;;;;;;7.44;64.84;100710.84;106121;1270;25261;-60
2022/05/16 03:43:30;;;;;;;;;;;;;;;7.45;64.87;100712.23;106087;1271;22523;-59
2022/05/16 03:46:00;;;;;;;;;;;;;;;7.47;64.71;100711.23;106214;1271;22616;-57
2022/05/16 03:48:30;;;;;;;;;;;;;;;7.48;65.20;100709.60;106257;1271;24208;-59
2022/05/16 03:51:00;;;;;;;;;;;;;;;7.45;65.53;100717.86;106335;1271;22600;-57
2022/05/16 03:53:30;;;;;;;;;;;;;;;7.44;65.45;100718.76;106357;1271;25438;-58
2022/05/16 03:56:00;;;;;;;;;;;;;;;7.45;65.41;100716.13;105956;1272;25375;-58
2022/05/16 03:58:29;;;;;;;;;;;;;;;7.47;65.47;100720.10;105584;1271;25606;-59
2022/05/16 04:00:59;;;;;;;;;;;;;;;7.50;65.39;100718.64;106086;1271;22563;-58
2022/05/16 04:03:29;;;;;;;;;;;;;;;7.54;65.54;100722.09;106282;1271;22508;-59
2022/05/16 04:05:59;;;;;;;;;;;;;;;7.57;65.84;100722.48;105953;1271;23186;-59
2022/05/16 04:08:29;;;;;;;;;;;;;;;7.60;65.73;100723.48;106130;1271;23351;-58
2022/05/16 04:11:02;;;;;;;;;;;;;;;7.63;65.79;100723.06;106112;1271;24264;-58
2022/05/16 04:13:32;;;;;;;;;;;;;;;7.66;65.74;100721.06;106216;1271;25355;-58
2022/05/16 04:16:02;;;;;;;;;;;;;;;7.70;65.81;100718.85;105868;1271;25370;-58
2022/05/16 04:18:32;;;;;;;;;;;;;;;7.74;66.00;100719.05;105752;1271;22878;-57
2022/05/16 04:21:02;;;;;;;;;;;;;;;7.78;66.06;100714.77;106006;1271;26944;-58
2022/05/16 04:23:33;;;;;;;;;;;;;;;7.83;66.34;100715.24;106028;1273;22584;-59
2022/05/16 04:26:02;;;;;;;;;;;;;;;7.89;66.24;100722.23;106164;1271;22546;-58
2022/05/16 04:28:32;;;;;;;;;;;;;;;7.95;66.34;100725.70;106165;1271;22466;-57
2022/05/16 04:31:02;;;;;;;;;;;;;;;8.02;66.84;100728.56;106146;1271;22531;-58
2022/05/16 04:33:35;;;;;;;;;;;;;;;8.11;66.70;100724.75;106492;1271;25126;-57
2022/05/16 04:36:05;;;;;;;;;;;;;;;8.20;66.88;100725.80;106152;1271;25296;-56
2022/05/16 04:38:39;;;;;;;;;;;;;;;8.29;66.94;100728.91;106215;1271;22534;-61
2022/05/16 04:43:59;;;;;;;;;;;;;;;8.54;67.66;100732.52;106038;1271;24217;-59
2022/05/16 04:46:33;;;;;;;;;;;;;;;8.68;67.65;100735.91;106098;1271;25373;-60
2022/05/16 04:49:03;;;;;;;;;;;;;;;8.81;67.63;100739.63;105962;1271;22460;-58
2022/05/16 04:51:33;;;;;;;;;;;;;;;8.92;67.97;100739.85;109247;1269;23866;-58
2022/05/16 04:54:02;;;;;;;;;;;;;;;9.04;68.47;100737.88;105864;1271;23064;-57
2022/05/16 04:56:34;;;;;;;;;;;;;;;9.14;68.97;100735.01;106050;1271;22467;-58
2022/05/16 04:59:03;;;;;;;;;;;;;;;9.23;68.70;100738.23;105831;1271;22516;-58
2022/05/16 05:01:33;;;;;;;;;;;;;;;9.33;68.74;100736.23;106454;1271;22617;-60
2022/05/16 05:04:03;;;;;;;;;;;;;;;9.49;68.46;100732.58;105839;1271;22535;-59
2022/05/16 05:06:36;;;;;;;;;;;;;;;9.67;68.13;100731.02;106003;1271;22525;-58
2022/05/16 05:09:07;;;;;;;;;;;;;;;9.82;68.13;100736.68;106025;1271;24315;-59
2022/05/16 05:14:34;;;;;;;;;;;;;;;10.17;67.92;100732.20;105795;1271;26560;-58
2022/05/16 05:17:04;;;;;;;;;;;;;;;10.31;68.12;100734.61;105948;1271;22640;-59
2022/05/16 05:19:36;;;;;;;;;;;;;;;10.47;68.05;100735.17;105939;1271;22675;-61
2022/05/16 05:22:06;;;;;;;;;;;;;;;10.62;67.93;100734.04;105886;1271;23907;-60
2022/05/16 05:24:35;;;;;;;;;;;;;;;10.77;67.98;100732.66;105987;1271;22616;-59
2022/05/16 05:27:06;;;;;;;;;;;;;;;10.94;67.90;100728.68;105826;1271;24330;-60
2022/05/16 05:29:35;;;;;;;;;;;;;;;11.12;67.69;100725.23;106037;1271;23353;-59
2022/05/16 05:32:08;;;;;;;;;;;;;;;11.32;67.45;100728.50;106099;1271;22596;-60
2022/05/16 05:34:41;;;;;;;;;;;;;;;11.51;67.02;100732.33;106053;1271;25443;-57
2022/05/16 05:37:10;;;;;;;;;;;;;;;11.72;67.10;100734.66;105924;1271;24397;-58
2022/05/16 05:39:40;;;;;;;;;;;;;;;11.86;66.73;100731.68;105919;1271;23246;-58
2022/05/16 05:42:11;;;;;;;;;;;;;;;12.03;66.48;100732.96;105975;1271;22672;-58
2022/05/16 05:44:41;;;;;;;;;;;;;;;12.19;66.25;100734.66;106152;1271;24379;-58
2022/05/16 05:47:13;;;;;;;;;;;;;;;12.35;66.00;100735.89;105750;1271;22695;-58
2022/05/16 05:49:43;;;;;;;;;;;;;;;12.54;65.91;100732.18;105996;1271;22529;-60
2022/05/16 05:52:16;;;;;;;;;;;;;;;12.70;65.00;100732.52;105875;1274;22518;-59
2022/05/16 05:54:46;;;;;;;;;;;;;;;12.78;65.24;100731.00;105770;1271;24460;-59
2022/05/16 05:57:17;;;;;;;;;;;;;;;12.90;64.90;100730.20;105818;1270;22522;-58
2022/05/16 05:59:47;;;;;;;;;;;;;;;13.04;64.98;100736.20;106018;1271;24286;-58
2022/05/16 06:02:20;;;;;;;;;;;;;;;13.19;64.95;100737.34;106044;1271;22510;-59
2022/05/16 06:04:51;;;;;;;;;;;;;;;13.36;64.39;100735.71;105977;1271;22516;-59
2022/05/16 06:07:21;;;;;;;;;;;;;;;13.50;64.35;100737.27;105730;1272;23900;-60
2022/05/16 06:09:51;;;;;;;;;;;;;;;13.65;64.06;100739.79;105908;1271;25303;-59
2022/05/16 06:12:22;;;;;;;;;;;;;;;13.84;64.11;100742.64;106000;1271;22546;-61
2022/05/16 06:14:52;;;;;;;;;;;;;;;13.98;63.55;100744.27;105947;1271;22538;-62
2022/05/16 06:17:22;;;;;;;;;;;;;;;14.13;63.35;100740.63;105734;1271;22619;-59
2022/05/16 06:19:53;;;;;;;;;;;;;;;14.29;63.16;100740.29;108103;1271;23476;-60
2022/05/16 06:22:23;;;;;;;;;;;;;;;14.44;63.01;100734.80;105864;1271;24246;-59
2022/05/16 06:27:39;;;;;;;;;;;;;;;14.76;61.83;100732.89;105586;1271;25204;-59
2022/05/16 06:30:11;;;;;;;;;;;;;;;14.88;61.64;100728.98;106596;1271;22545;-60
2022/05/16 06:32:40;;;;;;;;;;;;;;;15.04;61.13;100731.10;105928;1271;22969;-59
2022/05/16 06:35:10;;;;;;;;;;;;;;;15.16;60.74;100731.41;105731;1271;25995;-60
2022/05/16 06:37:41;;;;;;;;;;;;;;;15.28;60.12;100730.39;106022;1271;22556;-60
2022/05/16 06:40:12;;;;;;;;;;;;;;;15.39;59.81;100732.00;105832;1271;25313;-59
2022/05/16 06:42:42;;;;;;;;;;;;;;;15.49;59.62;100731.48;105830;1273;26303;-60
2022/05/16 06:45:13;;;;;;;;;;;;;;;15.60;59.50;100734.98;105755;1271;22621;-62
2022/05/16 06:47:43;;;;;;;;;;;;;;;15.72;59.17;100729.13;105762;1271;22580;-59
2022/05/16 06:50:13;;;;;;;;;;;;;;;15.82;58.78;100725.14;105812;1274;22827;-60
2022/05/16 06:52:43;;;;;;;;;;;;;;;15.91;58.15;100727.80;105818;1271;22512;-61
2022/05/16 06:55:13;;;;;;;;;;;;;;;15.98;57.85;100723.02;106113;1273;25319;-61
2022/05/16 06:57:43;;;;;;;;;;;;;;;16.08;57.71;100721.93;105954;1271;22540;-61
2022/05/16 07:00:14;;;;;;;;;;;;;;;16.19;57.18;100725.30;105760;1271;23826;-60
2022/05/16 07:02:44;;;;;;;;;;;;;;;16.30;57.00;100722.53;105956;1271;25231;-62
2022/05/16 07:05:14;;;;;;;;;;;;;;;16.40;56.56;100724.47;105819;1271;24865;-61
2022/05/16 07:07:44;;;;;;;;;;;;;;;16.49;56.12;100723.73;105973;1271;25307;-61
2022/05/16 07:10:14;;;;;;;;;;;;;;;16.56;55.74;100721.92;106020;1270;22593;-62
2022/05/16 07:12:45;;;;;;;;;;;;;;;16.62;55.44;100723.11;105810;1271;25100;-61
2022/05/16 07:15:15;;;;;;;;;;;;;;;16.71;55.39;100722.41;105849;1271;22525;-61
2022/05/16 07:17:46;;;;;;;;;;;;;;;16.79;54.98;100724.02;106199;1271;26517;-61
2022/05/16 07:20:18;;;;;;;;;;;;;;;16.87;55.02;100726.95;105947;1273;25662;-62
2022/05/16 07:22:49;;;;;;;;;;;;;;;16.98;54.54;100721.11;105915;1271;22749;-62
2022/05/16 07:25:25;;;;;;;;;;;;;;;17.05;53.48;100723.98;106039;1271;22660;-63
2022/05/16 07:28:00;;;;;;;;;;;;;;;17.10;53.25;100718.60;105879;1271;24307;-62
2022/05/16 07:30:31;;;;;;;;;;;;;;;17.13;52.75;100720.25;105786;1271;22518;-62
2022/05/16 07:33:02;;;;;;;;;;;;;;;17.19;52.31;100717.98;106036;1271;24360;-62
2022/05/16 07:35:33;;;;;;;;;;;;;;;17.25;52.30;100719.77;105784;1271;23404;-61
2022/05/16 07:38:03;;;;;;;;;;;;;;;17.32;52.34;100718.39;105894;1272;22661;-63
2022/05/16 07:40:33;;;;;;;;;;;;;;;17.40;51.93;100716.43;106107;1271;25649;-62
2022/05/16 07:43:04;;;;;;;;;;;;;;;17.48;51.73;100713.97;106032;1271;22525;-62
2022/05/16 07:45:34;;;;;;;;;;;;;;;17.54;51.41;100711.20;105780;1271;24316;-62
2022/05/16 07:48:06;;;;;;;;;;;;;;;17.63;51.64;100707.23;105984;1271;22520;-62
2022/05/16 07:50:38;;;;;;;;;;;;;;;17.77;51.47;100712.38;106050;1271;23012;-62
2022/05/16 07:53:11;;;;;;;;;;;;;;;17.94;51.08;100716.85;106696;1262;24264;-48
2022/05/16 07:55:42;;;;;;;;;;;;;;;18.05;50.31;100715.79;106264;1271;22593;-49
2022/05/16 07:58:12;;;;;;;;;;;;;;;18.09;49.89;100712.54;106114;1271;22531;-54
2022/05/16 08:00:42;;;;;;;;;;;;;;;18.11;49.28;100708.56;105813;1272;22522;-50
2022/05/16 08:03:13;;;;;;;;;;;;;;;18.11;49.02;100705.02;105858;1271;22568;-52
2022/05/16 08:05:44;;;;;;;;;;;;;;;18.15;49.30;100707.20;105880;1271;22529;-49
2022/05/16 08:11:02;;;;;;;;;;;;;;;18.34;48.78;100704.77;105878;1271;25231;-51
2022/05/16 08:13:32;;;;;;;;;;;;;;;18.42;48.72;100706.69;105847;1271;25262;-51
2022/05/16 08:16:01;;;;;;;;;;;;;;;18.52;48.43;100705.61;105965;1271;22583;-49
2022/05/16 08:18:32;;;;;;;;;;;;;;;18.61;48.17;100704.13;105881;1271;22529;-52
2022/05/16 08:21:01;;;;;;;;;;;;;;;18.71;48.09;100702.10;106299;1271;22541;-53
2022/05/16 08:23:31;;;;;;;;;;;;;;;18.81;47.74;100699.77;106255;1271;24254;-52
2022/05/16 08:26:04;;;;;;;;;;;;;;;18.90;46.96;100703.49;106336;1271;23917;-53
2022/05/16 08:28:33;;;;;;;;;;;;;;;19.02;46.79;100699.91;105919;1271;24295;-51
2022/05/16 08:31:03;;;;;;;;;;;;;;;19.20;46.85;100701.15;105797;1271;25408;-54
2022/05/16 08:33:33;;;;;;;;;;;;;;;19.36;46.51;100708.42;106301;1271;23913;-51
2022/05/16 08:41:47;;;;;;;;;;;;;;;19.51;44.98;100713.45;105683;1271;22511;-49
2022/05/16 08:44:20;;;;;;;;;;;;;;;19.53;44.37;100711.53;105922;1271;24373;-52
2022/05/16 08:46:58;;;;;;;;;;;;;;;19.52;44.22;100713.39;106113;1271;22539;-49
2022/05/16 08:49:31;;;;;;;;;;;;;;;19.51;44.07;100713.45;105874;1271;24281;-51
2022/05/16 08:52:05;;;;;;;;;;;;;;;19.55;44.00;100714.65;105809;1271;23034;-52
2022/05/16 08:54:38;;;;;;;;;;;;;;;19.58;43.53;100710.03;105883;1271;25369;-49
2022/05/16 08:57:09;;;;;;;;;;;;;;;19.62;43.39;100712.66;105827;1271;22708;-50
2022/05/16 08:59:43;;;;;;;;;;;;;;;19.65;43.06;100712.22;105901;1271;22512;-52
2022/05/16 09:02:17;;;;;;;;;;;;;;;19.68;43.10;100710.64;105896;1271;22502;-49
2022/05/16 09:04:49;;;;;;;;;;;;;;;19.74;43.08;100710.80;105904;1274;23944;-51
2022/05/16 09:07:23;;;;;;;;;;;;;;;19.79;42.88;100712.38;106018;1271;25511;-50
2022/05/16 09:09:56;;;;;;;;;;;;;;;19.84;42.06;100713.66;106051;1271;22519;-50
2022/05/16 09:12:30;;;;;;;;;;;;;;;19.84;41.66;100714.12;106003;1271;23145;-50
2022/05/16 09:15:05;;;;;;;;;;;;;;;19.87;41.78;100709.98;105879;1271;23930;-54
2022/05/16 09:17:42;;;;;;;;;;;;;;;19.89;41.75;100709.27;105842;1272;25357;-51
2022/05/16 09:20:19;;;;;;;;;;;;;;;19.96;41.87;100707.29;105948;1271;22564;-51
2022/05/16 09:22:53;;;;;;;;;;;;;;;20.08;41.80;100707.09;106007;1271;27740;-51
2022/05/16 09:25:24;;;;;;;;;;;;;;;20.29;42.10;100700.00;105682;1271;22654;-50
2022/05/16 09:30:45;;;;;;;;;;;;;;;20.65;41.41;100688.91;105706;1271;24307;-50
2022/05/16 09:33:18;;;;;;;;;;;;;;;20.75;41.38;100689.90;105739;1271;26514;-53
2022/05/16 09:35:54;;;;;;;;;;;;;;;20.82;40.84;100683.70;106009;1271;26915;-55
2022/05/16 09:38:24;;;;;;;;;;;;;;;20.87;40.90;100683.67;106246;1271;25220;-49
2022/05/16 09:41:10;;;;;;;;;;;;;;;20.93;40.59;100688.61;106072;1271;25220;-50
2022/05/16 09:43:42;;;;;;;;;;;;;;;21.01;40.57;100682.94;105986;1271;25335;-50
2022/05/16 09:46:19;;;;;;;;;;;;;;;21.08;39.68;100678.49;105762;1271;25560;-50
2022/05/16 09:48:56;;;;;;;;;;;;;;;21.16;39.72;100679.23;105682;1271;22523;-49
2022/05/16 09:51:27;;;;;;;;;;;;;;;21.23;39.91;100676.02;105807;1271;22523;-52
2022/05/16 09:54:10;;;;;;;;;;;;;;;21.31;39.70;100671.77;105978;1271;22988;-52
2022/05/16 09:56:40;;;;;;;;;;;;;;;21.38;39.70;100673.70;105933;1273;22532;-51
2022/05/16 09:59:11;;;;;;;;;;;;;;;21.48;39.97;100675.05;105949;1271;22529;-52
2022/05/16 10:01:44;;;;;;;;;;;;;;;21.56;39.70;100675.41;105855;1271;24488;-52
2022/05/16 10:04:15;;;;;;;;;;;;;;;21.65;39.52;100674.58;105957;1271;24326;-51
2022/05/16 10:06:58;;;;;;;;;;;;;;;21.71;38.95;100671.09;105772;1271;23358;-49
2022/05/16 10:09:29;;;;;;;;;;;;;;;21.79;38.62;100672.19;105748;1271;22604;-51
2022/05/16 10:11:58;;;;;;;;;;;;;;;21.75;37.92;100672.36;105871;1271;22601;-52
2022/05/16 10:14:29;;;;;;;;;;;;;;;21.66;37.89;100673.11;105830;1271;22534;-52
2022/05/16 10:17:00;;;;;;;;;;;;;;;21.65;38.32;100673.38;105786;1271;22538;-51
2022/05/16 10:19:31;;;;;;;;;;;;;;;21.67;38.02;100669.05;105777;1271;24299;-49
2022/05/16 10:22:03;;;;;;;;;;;;;;;21.70;38.28;100662.73;105924;1271;23138;-54
2022/05/16 10:24:34;;;;;;;;;;;;;;;21.77;37.86;100665.67;105923;1271;22594;-50
2022/05/16 10:27:06;;;;;;;;;;;;;;;21.83;38.18;100659.98;105834;1271;24256;-52
2022/05/16 10:29:37;;;;;;;;;;;;;;;21.93;37.99;100661.23;105719;1272;26373;-49
2022/05/16 10:35:02;;;;;;;;;;;;;;;22.13;37.57;100665.26;105803;1271;22958;-52
2022/05/16 10:37:32;;;;;;;;;;;;;;;22.17;37.25;100668.68;105829;1271;22600;-52
2022/05/16 10:40:07;;;;;;;;;;;;;;;22.18;37.42;100666.18;105825;1271;25483;-49
2022/05/16 10:42:39;;;;;;;;;;;;;;;22.26;37.42;100662.44;105871;1271;22589;-49
2022/05/16 10:45:13;;;;;;;;;;;;;;;22.36;37.34;100659.32;105945;1271;22522;-50
2022/05/16 10:47:52;;;;;;;;;;;;;;;22.47;37.15;100653.33;105650;1271;25301;-49
2022/05/16 10:50:25;;;;;;;;;;;;;;;22.57;36.92;100650.52;105794;1271;22635;-54
2022/05/16 10:53:00;;;;;;;;;;;;;;;22.61;36.02;100647.89;105733;1270;24220;-52
2022/05/16 10:55:31;;;;;;;;;;;;;;;22.62;36.21;100646.54;105806;1271;22552;-50
2022/05/16 10:58:17;;;;;;;;;;;;;;;22.69;35.85;100647.96;106323;1271;22532;-51
2022/05/16 11:00:51;;;;;;;;;;;;;;;22.72;35.33;100645.80;105663;1273;25408;-50
2022/05/16 11:03:34;;;;;;;;;;;;;;;22.63;35.22;100636.46;105789;1271;23606;-49
2022/05/16 11:06:12;;;;;;;;;;;;;;;22.58;35.59;100636.00;105894;1271;25366;-54
2022/05/16 11:08:46;;;;;;;;;;;;;;;22.62;35.42;100632.76;105952;1271;25293;-52
2022/05/16 11:11:21;;;;;;;;;;;;;;;22.63;35.01;100629.55;105841;1271;27417;-51
2022/05/16 11:13:53;;;;;;;;;;;;;;;22.58;34.89;100625.09;105707;1271;22516;-50
2022/05/16 11:16:25;;;;;;;;;;;;;;;22.57;34.73;100620.13;105804;1271;25280;-54
2022/05/16 11:18:59;;;;;;;;;;;;;;;22.56;34.53;100622.12;106020;1271;25316;-49
2022/05/16 11:21:42;;;;;;;;;;;;;;;22.49;33.99;100621.41;105816;1271;23514;-50
2022/05/16 11:24:17;;;;;;;;;;;;;;;22.46;34.09;100618.31;106000;1271;22538;-53
2022/05/16 11:26:49;;;;;;;;;;;;;;;22.45;34.00;100621.23;105810;1271;25260;-50
2022/05/16 11:29:23;;;;;;;;;;;;;;;22.40;33.91;100620.73;105725;1271;24311;-54
2022/05/16 11:32:01;;;;;;;;;;;;;;;22.43;34.32;100616.79;105748;1271;22524;-51
2022/05/16 11:34:38;;;;;;;;;;;;;;;22.47;34.04;100615.95;105911;1271;22671;-49
2022/05/16 11:37:18;;;;;;;;;;;;;;;22.49;33.82;100618.86;105925;1271;22527;-49
2022/05/16 11:39:52;;;;;;;;;;;;;;;22.52;33.43;100616.02;105939;1271;25052;-49
2022/05/16 11:42:27;;;;;;;;;;;;;;;22.52;33.29;100615.52;105777;1271;22545;-50
2022/05/16 11:45:04;;;;;;;;;;;;;;;22.56;33.02;100610.89;105794;1271;22521;-48
2022/05/16 11:47:38;;;;;;;;;;;;;;;22.60;32.96;100609.59;105725;1271;22538;-49
2022/05/16 11:50:10;;;;;;;;;;;;;;;22.60;32.61;100602.76;105892;1271;25196;-52
2022/05/16 11:52:48;;;;;;;;;;;;;;;22.56;32.28;100601.84;105851;1271;25166;-53
2022/05/16 12:00:58;;;;;;;;;;;;;;;22.27;32.22;100580.02;105812;1271;26485;-53
2022/05/16 12:03:37;;;;;;;;;;;;;;;22.28;32.49;100577.23;105947;1271;23019;-50
2022/05/16 12:06:23;;;;;;;;;;;;;;;22.32;32.30;100568.89;105722;1271;25239;-54
2022/05/16 12:09:03;;;;;;;;;;;;;;;22.35;32.25;100581.23;105750;1272;22545;-50
2022/05/16 12:11:47;;;;;;;;;;;;;;;22.39;32.50;100578.60;106021;1271;22543;-50
2022/05/16 12:14:29;;;;;;;;;;;;;;;22.51;32.45;100582.35;106124;1271;23714;-49
2022/05/16 12:17:02;;;;;;;;;;;;;;;22.58;32.04;100579.97;105869;1271;22539;-52
2022/05/16 12:19:34;;;;;;;;;;;;;;;22.62;31.45;100576.11;106011;1271;24326;-49
2022/05/16 12:22:07;;;;;;;;;;;;;;;22.62;31.13;100573.64;106015;1271;25343;-53
2022/05/16 12:25:00;;;;;;;;;;;;;;;22.63;31.38;100569.10;106130;1271;24385;-51
2022/05/16 12:27:34;;;;;;;;;;;;;;;22.64;30.75;100571.91;105830;1271;22545;-52
2022/05/16 12:30:06;;;;;;;;;;;;;;;22.57;30.46;100567.88;106060;1271;22754;-51
2022/05/16 12:32:53;;;;;;;;;;;;;;;22.51;30.94;100561.80;106104;1271;22528;-50
2022/05/16 12:35:40;;;;;;;;;;;;;;;22.52;30.79;100560.02;106000;1271;22512;-52
2022/05/16 12:38:11;;;;;;;;;;;;;;;22.59;30.58;100552.02;106041;1271;24323;-51
2022/05/16 12:40:57;;;;;;;;;;;;;;;22.60;30.60;100548.02;105996;1270;24261;-51
2022/05/16 12:43:33;;;;;;;;;;;;;;;22.62;30.74;100542.95;105791;1270;22531;-50
2022/05/16 12:46:12;;;;;;;;;;;;;;;22.65;30.45;100539.83;106003;1271;24412;-51
2022/05/16 12:48:52;;;;;;;;;;;;;;;22.70;30.22;100533.23;106026;1271;22794;-50
2022/05/16 12:51:27;;;;;;;;;;;;;;;22.69;30.43;100525.52;106119;1271;24271;-50
2022/05/16 12:54:13;;;;;;;;;;;;;;;22.75;30.18;100518.39;105977;1271;25228;-53
2022/05/16 12:56:47;;;;;;;;;;;;;;;22.80;29.86;100510.69;105889;1271;26471;-52
2022/05/16 12:59:26;;;;;;;;;;;;;;;22.81;29.34;100510.52;106058;1271;22519;-53
2022/05/16 13:02:01;;;;;;;;;;;;;;;22.82;29.05;100507.02;105953;1270;22526;-53
2022/05/16 13:04:41;;;;;;;;;;;;;;;22.80;28.70;100507.34;105854;1271;24238;-53
2022/05/16 13:07:13;;;;;;;;;;;;;;;22.77;29.10;100500.52;105835;1271;24235;-53
2022/05/16 13:09:48;;;;;;;;;;;;;;;22.81;29.17;100495.63;105906;1271;24272;-55
2022/05/16 13:12:26;;;;;;;;;;;;;;;22.85;29.13;100494.11;105708;1271;22599;-53
2022/05/16 13:15:02;;;;;;;;;;;;;;;22.89;28.95;100491.81;105818;1271;22524;-54
2022/05/16 13:17:35;;;;;;;;;;;;;;;22.94;28.97;100494.98;105891;1271;22539;-51
2022/05/16 13:20:08;;;;;;;;;;;;;;;22.98;28.65;100495.02;105867;1271;22535;-54
2022/05/16 13:22:37;;;;;;;;;;;;;;;23.02;28.81;100497.52;105797;1271;22540;-54
2022/05/16 13:25:08;;;;;;;;;;;;;;;23.05;28.67;100496.59;106090;1271;24271;-54
2022/05/16 13:30:28;;;;;;;;;;;;;;;23.17;29.90;100491.38;105945;1271;24290;-53
2022/05/16 13:32:57;;;;;;;;;;;;;;;23.25;29.93;100487.79;106167;1271;22523;-54
2022/05/16 13:35:35;;;;;;;;;;;;;;;23.31;29.80;100485.46;105989;1271;22515;-50